createdAt,value
2023-05-11T00:00:04.695Z,0.60
2023-05-11T00:01:04.674Z,0.50
2023-05-11T00:02:04.708Z,0.40
2023-05-11T00:03:04.755Z,0.90
2023-05-11T00:04:04.765Z,0.40
2023-05-11T00:05:05.227Z,0.60
2023-05-11T00:06:05.428Z,0.40
2023-05-11T00:07:04.630Z,0.30
2023-05-11T00:08:04.649Z,0.40
2023-05-11T00:09:04.602Z,0.80
2023-05-11T00:10:05.341Z,0.80
2023-05-11T00:11:05.370Z,0.50
2023-05-11T00:12:04.873Z,0.50
2023-05-11T00:13:05.349Z,0.70
2023-05-11T00:14:04.569Z,0.30
2023-05-11T00:15:04.585Z,0.50
2023-05-11T00:16:04.686Z,0.60
2023-05-11T00:17:04.509Z,0.70
2023-05-11T00:18:04.888Z,0.80
2023-05-11T00:19:04.562Z,0.50
2023-05-11T00:20:04.502Z,0.50
2023-05-11T00:21:05.340Z,0.70
2023-05-11T00:22:04.457Z,0.60
2023-05-11T00:23:04.505Z,0.30
2023-05-11T00:24:04.456Z,0.70
2023-05-11T00:25:04.445Z,0.30
2023-05-11T00:26:05.414Z,0.30
2023-05-11T00:27:04.394Z,0.80
2023-05-11T00:28:04.397Z,0.80
2023-05-11T00:29:04.383Z,0.70
2023-05-11T00:30:04.390Z,0.80
2023-05-11T00:31:04.416Z,0.30
2023-05-11T00:32:04.347Z,0.60
2023-05-11T00:33:04.383Z,0.90
2023-05-11T00:34:04.334Z,0.60
2023-05-11T00:35:04.310Z,0.50
2023-05-11T00:36:04.324Z,0.70
2023-05-11T00:37:04.355Z,0.70
2023-05-11T00:38:04.834Z,0.60
2023-05-11T00:39:04.847Z,0.50
2023-05-11T00:40:04.252Z,0.70
2023-05-11T00:41:05.912Z,0.30
2023-05-11T00:42:04.265Z,0.40
2023-05-11T00:43:04.888Z,0.60
2023-05-11T00:44:04.839Z,0.60
2023-05-11T00:45:04.196Z,0.70
2023-05-11T00:46:04.203Z,0.80
2023-05-11T00:47:04.322Z,0.90
2023-05-11T00:48:04.204Z,0.70
2023-05-11T00:49:04.149Z,0.90
2023-05-11T00:50:04.136Z,0.40
2023-05-11T00:51:04.120Z,0.60
2023-05-11T00:52:04.141Z,0.80
2023-05-11T00:53:04.120Z,0.60
2023-05-11T00:54:04.110Z,0.60
2023-05-11T00:55:04.081Z,0.40
2023-05-11T00:56:04.067Z,0.40
2023-05-11T00:57:04.164Z,0.30
2023-05-11T00:58:04.074Z,0.50
2023-05-11T00:59:04.038Z,0.70
2023-05-11T01:00:04.042Z,0.50
2023-05-11T01:01:04.021Z,0.70
2023-05-11T01:02:04.182Z,0.50
2023-05-11T01:03:04.011Z,0.60
2023-05-11T01:04:04.009Z,0.90
2023-05-11T01:05:04.001Z,0.90
2023-05-11T01:06:03.967Z,0.60
2023-05-11T01:07:03.957Z,0.90
2023-05-11T01:08:03.947Z,0.50
2023-05-11T01:09:03.967Z,0.40
2023-05-11T01:10:03.928Z,0.90
2023-05-11T01:11:03.966Z,0.90
2023-05-11T01:12:03.906Z,0.80
2023-05-11T01:13:03.889Z,0.50
2023-05-11T01:14:03.925Z,0.80
2023-05-11T01:15:03.868Z,0.90
2023-05-11T01:16:03.883Z,0.60
2023-05-11T01:17:04.116Z,0.30
2023-05-11T01:18:03.858Z,1.00
2023-05-11T01:19:03.994Z,0.60
2023-05-11T01:20:03.841Z,0.60
2023-05-11T01:21:03.801Z,0.80
2023-05-11T01:22:03.805Z,0.50
2023-05-11T01:23:03.788Z,0.50
2023-05-11T01:24:03.764Z,0.80
2023-05-11T01:25:03.770Z,0.70
2023-05-11T01:26:03.768Z,0.70
2023-05-11T01:27:03.751Z,0.50
2023-05-11T01:28:03.738Z,0.80
2023-05-11T01:29:03.732Z,0.90
2023-05-11T01:30:03.750Z,1.00
2023-05-11T01:31:03.690Z,0.90
2023-05-11T01:32:03.702Z,1.00
2023-05-11T01:33:03.737Z,0.70
2023-05-11T01:34:03.661Z,0.60
2023-05-11T01:35:03.652Z,0.70
2023-05-11T01:36:03.663Z,0.70
2023-05-11T01:37:03.651Z,0.50
2023-05-11T01:38:03.612Z,0.60
2023-05-11T01:39:03.603Z,0.80
2023-05-11T01:40:03.594Z,0.60
2023-05-11T01:41:03.606Z,0.50
2023-05-11T01:42:03.574Z,0.30
2023-05-11T01:43:03.558Z,1.10
2023-05-11T01:44:03.545Z,0.60
2023-05-11T01:45:03.543Z,0.50
2023-05-11T01:46:03.553Z,0.70
2023-05-11T01:47:03.543Z,0.70
2023-05-11T01:48:03.550Z,0.50
2023-05-11T01:49:03.503Z,0.80
2023-05-11T01:50:03.497Z,0.50
2023-05-11T01:51:03.483Z,0.70
2023-05-11T01:52:03.452Z,0.90
2023-05-11T01:53:03.465Z,0.60
2023-05-11T01:54:03.439Z,0.40
2023-05-11T01:55:03.431Z,0.70
2023-05-11T01:56:03.417Z,1.10
2023-05-11T01:57:03.432Z,0.80
2023-05-11T01:58:03.389Z,0.60
2023-05-11T01:59:03.380Z,0.70
2023-05-11T02:00:03.372Z,0.40
2023-05-11T02:01:03.438Z,0.50
2023-05-11T02:02:03.377Z,0.80
2023-05-11T02:03:03.449Z,0.80
2023-05-11T02:04:03.324Z,0.40
2023-05-11T02:05:03.309Z,0.70
2023-05-11T02:06:03.305Z,0.60
2023-05-11T02:07:03.318Z,0.40
2023-05-11T02:08:03.305Z,0.80
2023-05-11T02:09:03.319Z,0.90
2023-05-11T02:10:03.290Z,0.80
2023-05-11T02:11:03.273Z,0.60
2023-05-11T02:12:03.259Z,0.30
2023-05-11T02:13:03.234Z,1.10
2023-05-11T02:14:03.222Z,0.70
2023-05-11T02:15:03.221Z,0.90
2023-05-11T02:16:03.213Z,0.80
2023-05-11T02:17:03.218Z,0.50
2023-05-11T02:18:03.208Z,0.50
2023-05-11T02:19:03.304Z,1.00
2023-05-11T02:20:03.205Z,0.90
2023-05-11T02:21:03.201Z,0.70
2023-05-11T02:22:03.154Z,0.60
2023-05-11T02:23:03.134Z,0.70
2023-05-11T02:24:03.114Z,0.80
2023-05-11T02:25:03.112Z,0.40
2023-05-11T02:26:03.087Z,0.30
2023-05-11T02:27:03.125Z,0.70
2023-05-11T02:28:03.079Z,0.60
2023-05-11T02:29:03.054Z,0.40
2023-05-11T02:30:03.047Z,0.60
2023-05-11T02:31:03.040Z,1.00
2023-05-11T02:32:03.022Z,0.40
2023-05-11T02:33:03.094Z,0.70
2023-05-11T02:34:03.017Z,0.60
2023-05-11T02:35:02.991Z,0.60
2023-05-11T02:36:02.988Z,0.90
2023-05-11T02:37:02.972Z,0.70
2023-05-11T02:38:02.993Z,0.60
2023-05-11T02:39:02.964Z,0.70
2023-05-11T02:40:02.947Z,0.30
2023-05-11T02:41:02.931Z,0.80
2023-05-11T02:42:02.913Z,0.50
2023-05-11T02:43:02.900Z,0.70
2023-05-11T02:44:02.916Z,0.60
2023-05-11T02:45:02.878Z,0.60
2023-05-11T02:46:02.872Z,0.80
2023-05-11T02:47:02.923Z,0.70
2023-05-11T02:48:02.880Z,0.90
2023-05-11T02:49:02.859Z,0.60
2023-05-11T02:50:02.828Z,0.70
2023-05-11T02:51:02.810Z,0.50
2023-05-11T02:52:02.815Z,1.20
2023-05-11T02:53:02.795Z,0.60
2023-05-11T02:54:02.834Z,0.80
2023-05-11T02:55:02.760Z,0.80
2023-05-11T02:56:02.763Z,1.20
2023-05-11T02:57:02.744Z,0.50
2023-05-11T02:58:02.748Z,0.50
2023-05-11T02:59:02.747Z,0.80
2023-05-11T03:00:02.721Z,0.80
2023-05-11T03:01:02.784Z,0.60
2023-05-11T03:02:02.853Z,0.60
2023-05-11T03:03:02.801Z,1.40
2023-05-11T03:04:02.685Z,0.30
2023-05-11T03:05:02.668Z,1.00
2023-05-11T03:06:02.653Z,0.60
2023-05-11T03:07:02.635Z,0.60
2023-05-11T03:08:02.625Z,0.70
2023-05-11T03:09:02.640Z,0.60
2023-05-11T03:10:02.620Z,0.60
2023-05-11T03:11:02.625Z,0.50
2023-05-11T03:12:02.603Z,0.60
2023-05-11T03:13:02.569Z,0.60
2023-05-11T03:14:02.560Z,0.90
2023-05-11T03:15:02.552Z,0.70
2023-05-11T03:16:02.607Z,0.90
2023-05-11T03:17:02.533Z,0.80
2023-05-11T03:18:02.580Z,0.70
2023-05-11T03:19:02.525Z,0.50
2023-05-11T03:20:02.514Z,0.60
2023-05-11T03:21:02.535Z,0.60
2023-05-11T03:22:02.479Z,0.70
2023-05-11T03:23:02.466Z,0.80
2023-05-11T03:24:02.486Z,1.20
2023-05-11T03:25:02.457Z,1.00
2023-05-11T03:26:02.437Z,0.90
2023-05-11T03:27:02.436Z,0.80
2023-05-11T03:28:02.424Z,1.10
2023-05-11T03:29:02.436Z,1.00
2023-05-11T03:30:02.388Z,0.90
2023-05-11T03:31:02.376Z,1.10
2023-05-11T03:32:02.449Z,0.50
2023-05-11T03:33:02.545Z,1.00
2023-05-11T03:35:30.395Z,1.00
2023-05-11T03:35:35.782Z,1.20
2023-05-11T03:36:35.777Z,0.40
2023-05-11T03:37:35.762Z,1.00
2023-05-11T03:38:35.783Z,0.70
2023-05-11T03:39:35.739Z,0.70
2023-05-11T03:40:35.745Z,0.70
2023-05-11T03:41:35.731Z,0.50
2023-05-11T03:42:35.711Z,0.90
2023-05-11T03:43:35.717Z,1.10
2023-05-11T03:44:35.689Z,0.80
2023-05-11T03:45:35.681Z,0.90
2023-05-11T03:46:35.730Z,1.30
2023-05-11T03:47:35.680Z,0.90
2023-05-11T03:48:35.652Z,0.90
2023-05-11T03:49:35.647Z,0.40
2023-05-11T03:50:35.642Z,1.10
2023-05-11T03:51:35.606Z,0.50
2023-05-11T03:52:35.613Z,0.50
2023-05-11T03:53:35.619Z,0.70
2023-05-11T03:54:35.575Z,0.90
2023-05-11T03:55:35.601Z,0.90
2023-05-11T03:56:35.552Z,0.70
2023-05-11T03:57:35.546Z,1.00
2023-05-11T03:58:35.545Z,0.50
2023-05-11T03:59:35.527Z,0.60
2023-05-11T04:00:35.551Z,0.50
2023-05-11T04:01:35.513Z,0.80
2023-05-11T04:02:35.539Z,0.70
2023-05-11T04:03:35.671Z,0.50
2023-05-11T04:04:35.574Z,0.40
2023-05-11T04:05:35.456Z,1.00
2023-05-11T04:06:35.447Z,1.10
2023-05-11T04:07:35.431Z,0.90
2023-05-11T04:08:35.431Z,0.60
2023-05-11T04:09:35.409Z,0.70
2023-05-11T04:10:35.427Z,0.70
2023-05-11T04:11:35.386Z,0.80
2023-05-11T04:12:35.380Z,1.10
2023-05-11T04:13:35.367Z,0.70
2023-05-11T04:14:35.363Z,0.70
2023-05-11T04:15:35.384Z,0.50
2023-05-11T04:16:35.408Z,0.70
2023-05-11T04:17:35.354Z,1.10
2023-05-11T04:18:35.350Z,0.80
2023-05-11T04:19:35.331Z,0.80
2023-05-11T04:20:35.301Z,0.60
2023-05-11T04:21:35.284Z,0.90
2023-05-11T04:22:35.276Z,0.60
2023-05-11T04:23:35.257Z,0.70
2023-05-11T04:24:35.258Z,0.70
2023-05-11T04:25:35.261Z,1.20
2023-05-11T04:26:35.241Z,0.60
2023-05-11T04:27:35.212Z,0.50
2023-05-11T04:28:35.195Z,0.90
2023-05-11T04:29:35.189Z,0.60
2023-05-11T04:30:35.208Z,1.00
2023-05-11T04:31:35.225Z,0.80
2023-05-11T04:32:35.207Z,0.70
2023-05-11T04:33:35.142Z,0.70
2023-05-11T04:34:35.134Z,0.60
2023-05-11T04:35:35.165Z,0.80
2023-05-11T04:36:35.133Z,0.70
2023-05-11T04:37:35.118Z,0.90
2023-05-11T04:38:35.105Z,0.70
2023-05-11T04:39:35.085Z,0.50
2023-05-11T04:40:35.153Z,0.80
2023-05-11T04:41:35.057Z,0.70
2023-05-11T04:42:35.044Z,0.70
2023-05-11T04:43:35.067Z,0.70
2023-05-11T04:44:35.023Z,0.70
2023-05-11T04:45:35.016Z,0.50
2023-05-11T04:46:35.071Z,1.20
2023-05-11T04:47:35.022Z,0.60
2023-05-11T04:48:34.989Z,0.70
2023-05-11T04:49:34.997Z,0.70
2023-05-11T04:50:35.000Z,0.50
2023-05-11T04:51:34.973Z,0.90
2023-05-11T04:52:34.951Z,0.90
2023-05-11T04:53:34.954Z,1.10
2023-05-11T04:54:34.922Z,0.60
2023-05-11T04:55:34.931Z,0.60
2023-05-11T04:56:34.895Z,0.70
2023-05-11T04:57:34.896Z,0.80
2023-05-11T04:58:34.874Z,0.80
2023-05-11T04:59:34.892Z,0.40
2023-05-11T05:00:34.870Z,0.70
2023-05-11T05:01:34.945Z,0.90
2023-05-11T05:02:34.881Z,0.70
2023-05-11T05:03:34.858Z,0.80
2023-05-11T05:04:36.372Z,0.80
2023-05-11T05:05:34.827Z,0.90
2023-05-11T05:06:34.821Z,0.60
2023-05-11T05:07:34.786Z,0.90
2023-05-11T05:08:34.779Z,0.80
2023-05-11T05:09:34.775Z,1.00
2023-05-11T05:10:34.916Z,1.00
2023-05-11T05:11:34.741Z,0.80
2023-05-11T05:12:34.730Z,0.70
2023-05-11T05:13:34.713Z,1.00
2023-05-11T05:14:34.725Z,0.80
2023-05-11T05:15:34.700Z,1.00
2023-05-11T05:16:34.760Z,0.90
2023-05-11T05:17:34.712Z,1.10
2023-05-11T05:18:34.702Z,1.00
2023-05-11T05:19:34.642Z,0.90
2023-05-11T05:20:34.643Z,0.80
2023-05-11T05:21:34.653Z,1.00
2023-05-11T05:22:34.620Z,0.70
2023-05-11T05:23:34.609Z,0.80
2023-05-11T05:24:34.591Z,0.90
2023-05-11T05:25:34.574Z,1.10
2023-05-11T05:26:34.593Z,1.00
2023-05-11T05:27:35.239Z,0.90
2023-05-11T05:28:34.553Z,0.80
2023-05-11T05:29:34.542Z,1.00
2023-05-11T05:30:34.540Z,0.80
2023-05-11T05:31:34.594Z,0.70
2023-05-11T05:32:34.530Z,0.90
2023-05-11T05:33:34.516Z,0.90
2023-05-11T05:34:34.486Z,0.70
2023-05-11T05:35:34.476Z,0.70
2023-05-11T05:36:34.471Z,0.80
2023-05-11T05:37:34.469Z,0.90
2023-05-11T05:38:34.450Z,1.10
2023-05-11T05:39:34.437Z,0.80
2023-05-11T05:40:34.416Z,0.80
2023-05-11T05:41:34.428Z,1.00
2023-05-11T05:42:34.399Z,1.40
2023-05-11T05:43:34.398Z,1.20
2023-05-11T05:44:34.398Z,1.30
2023-05-11T05:45:34.369Z,1.00
2023-05-11T05:46:34.371Z,1.20
2023-05-11T05:47:34.405Z,0.90
2023-05-11T05:48:34.338Z,1.00
2023-05-11T05:49:34.344Z,0.90
2023-05-11T05:50:34.337Z,1.00
2023-05-11T05:51:34.290Z,1.00
2023-05-11T05:52:34.295Z,1.40
2023-05-11T05:53:34.276Z,0.90
2023-05-11T05:54:34.268Z,0.80
2023-05-11T05:55:34.278Z,1.20
2023-05-11T05:56:34.274Z,1.20
2023-05-11T05:57:34.237Z,1.30
2023-05-11T05:58:34.228Z,1.40
2023-05-11T05:59:34.208Z,1.20
2023-05-11T06:00:34.225Z,0.90
2023-05-11T06:01:34.213Z,1.50
2023-05-11T06:02:34.260Z,0.70
2023-05-11T06:03:34.397Z,0.90
2023-05-11T06:04:34.218Z,1.10
2023-05-11T06:05:34.176Z,1.50
2023-05-11T06:06:34.130Z,1.30
2023-05-11T06:07:34.136Z,1.20
2023-05-11T06:08:34.110Z,1.20
2023-05-11T06:09:34.095Z,1.10
2023-05-11T06:10:34.115Z,1.10
2023-05-11T06:11:34.123Z,1.40
2023-05-11T06:12:34.087Z,2.00
2023-05-11T06:13:34.072Z,1.50
2023-05-11T06:14:34.045Z,1.20
2023-05-11T06:15:34.050Z,1.20
2023-05-11T06:16:34.033Z,1.30
2023-05-11T06:17:34.036Z,1.70
2023-05-11T06:18:34.018Z,0.90
2023-05-11T06:19:33.991Z,1.20
2023-05-11T06:20:33.973Z,1.10
2023-05-11T06:21:33.986Z,1.00
2023-05-11T06:22:33.984Z,1.30
2023-05-11T06:23:33.942Z,1.40
2023-05-11T06:24:33.933Z,1.60
2023-05-11T06:25:33.927Z,1.80
2023-05-11T06:26:33.931Z,1.60
2023-05-11T06:27:33.903Z,1.40
2023-05-11T06:28:33.898Z,1.30
2023-05-11T06:29:33.881Z,1.60
2023-05-11T06:30:33.871Z,1.20
2023-05-11T06:31:33.908Z,1.40
2023-05-11T06:32:33.895Z,1.60
2023-05-11T06:33:33.840Z,1.30
2023-05-11T06:34:33.828Z,1.60
2023-05-11T06:35:33.808Z,1.20
2023-05-11T06:36:33.821Z,1.30
2023-05-11T06:37:33.812Z,1.10
2023-05-11T06:38:33.787Z,1.20
2023-05-11T06:39:33.776Z,1.70
2023-05-11T06:40:33.757Z,1.70
2023-05-11T06:41:33.756Z,1.90
2023-05-11T06:42:33.759Z,1.40
2023-05-11T06:43:33.718Z,1.40
2023-05-11T06:44:33.713Z,1.70
2023-05-11T06:45:33.798Z,0.90
2023-05-11T06:46:33.733Z,1.30
2023-05-11T06:47:33.732Z,1.00
2023-05-11T06:48:33.694Z,2.00
2023-05-11T06:49:33.665Z,1.30
2023-05-11T06:50:33.661Z,0.90
2023-05-11T06:51:33.646Z,1.50
2023-05-11T06:52:33.628Z,1.70
2023-05-11T06:53:33.631Z,1.10
2023-05-11T06:54:33.635Z,1.70
2023-05-11T06:55:33.608Z,2.00
2023-05-11T06:56:33.581Z,1.60
2023-05-11T06:57:33.576Z,1.60
2023-05-11T06:58:33.575Z,1.70
2023-05-11T06:59:33.567Z,1.30
2023-05-11T07:00:33.578Z,1.40
2023-05-11T07:01:33.590Z,1.70
2023-05-11T07:02:33.544Z,1.40
2023-05-11T07:03:33.555Z,1.40
2023-05-11T07:04:33.557Z,1.90
2023-05-11T07:05:33.508Z,2.10
2023-05-11T07:06:33.474Z,1.00
2023-05-11T07:07:33.465Z,2.00
2023-05-11T07:08:33.460Z,1.70
2023-05-11T07:09:33.457Z,1.30
2023-05-11T07:10:33.436Z,1.10
2023-05-11T07:11:33.433Z,1.30
2023-05-11T07:12:33.406Z,1.20
2023-05-11T07:13:33.407Z,1.50
2023-05-11T07:14:33.404Z,1.30
2023-05-11T07:15:33.379Z,1.60
2023-05-11T07:16:33.382Z,1.30
2023-05-11T07:17:33.373Z,1.50
2023-05-11T07:18:33.374Z,1.40
2023-05-11T07:19:33.344Z,1.90
2023-05-11T07:20:33.342Z,1.40
2023-05-11T07:21:33.343Z,1.50
2023-05-11T07:22:33.322Z,1.50
2023-05-11T07:23:33.290Z,2.00
2023-05-11T07:24:33.276Z,1.30
2023-05-11T07:25:33.271Z,1.50
2023-05-11T07:26:33.281Z,1.50
2023-05-11T07:27:33.246Z,1.70
2023-05-11T07:28:33.231Z,1.80
2023-05-11T07:29:33.225Z,1.50
2023-05-11T07:30:33.241Z,2.20
2023-05-11T07:31:33.217Z,2.30
2023-05-11T07:32:33.244Z,2.20
2023-05-11T07:33:33.204Z,2.40
2023-05-11T07:34:33.162Z,2.10
2023-05-11T07:35:33.162Z,2.40
2023-05-11T07:36:33.177Z,2.40
2023-05-11T07:37:33.133Z,2.20
2023-05-11T07:38:33.138Z,2.70
2023-05-11T07:39:33.120Z,3.40
2023-05-11T07:40:33.093Z,2.40
2023-05-11T07:41:33.125Z,2.40
2023-05-11T07:42:33.092Z,2.20
2023-05-11T07:43:33.065Z,2.20
2023-05-11T07:44:33.095Z,3.20
2023-05-11T07:45:33.048Z,2.80
2023-05-11T07:46:33.105Z,2.60
2023-05-11T07:47:36.026Z,2.70
2023-05-11T07:48:33.022Z,3.00
2023-05-11T07:49:42.894Z,3.00
2023-05-11T07:50:33.006Z,3.40
2023-05-11T07:51:33.019Z,3.10
2023-05-11T07:52:33.020Z,3.40
2023-05-11T07:53:32.960Z,3.50
2023-05-11T07:54:32.951Z,3.30
2023-05-11T07:55:32.947Z,3.50
2023-05-11T07:56:32.942Z,3.80
2023-05-11T07:57:32.962Z,3.30
2023-05-11T07:58:32.924Z,3.50
2023-05-11T07:59:32.893Z,3.20
2023-05-11T08:00:32.877Z,3.40
2023-05-11T08:01:32.872Z,3.60
2023-05-11T08:02:32.908Z,3.60
2023-05-11T08:03:32.924Z,3.80
2023-05-11T08:04:32.854Z,3.90
2023-05-11T08:05:32.931Z,3.80
2023-05-11T08:06:32.807Z,3.10
2023-05-11T08:07:32.828Z,3.30
2023-05-11T08:08:32.794Z,3.90
2023-05-11T08:09:32.788Z,3.60
2023-05-11T08:10:32.794Z,3.00
2023-05-11T08:11:32.760Z,3.30
2023-05-11T08:12:32.752Z,3.50
2023-05-11T08:13:32.754Z,3.30
2023-05-11T08:14:32.738Z,3.60
2023-05-11T08:15:32.717Z,4.00
2023-05-11T08:16:32.814Z,3.80
2023-05-11T08:17:32.719Z,4.40
2023-05-11T08:18:32.734Z,3.90
2023-05-11T08:19:32.689Z,3.80
2023-05-11T08:20:32.683Z,3.80
2023-05-11T08:21:32.656Z,3.70
2023-05-11T08:22:32.848Z,3.70
2023-05-11T08:23:32.633Z,4.50
2023-05-11T08:24:32.625Z,4.10
2023-05-11T08:25:32.609Z,4.30
2023-05-11T08:26:32.602Z,4.30
2023-05-11T08:27:32.591Z,4.20
2023-05-11T08:28:32.607Z,3.60
2023-05-11T08:29:32.588Z,3.60
2023-05-11T08:30:32.554Z,3.90
2023-05-11T08:31:32.566Z,3.50
2023-05-11T08:32:38.243Z,3.90
2023-05-11T08:33:38.093Z,4.10
2023-05-11T08:34:32.574Z,4.40
2023-05-11T08:35:32.503Z,4.00
2023-05-11T08:36:32.486Z,4.20
2023-05-11T08:37:32.484Z,3.80
2023-05-11T08:38:32.508Z,4.10
2023-05-11T08:39:46.001Z,3.80
2023-05-11T08:40:32.442Z,3.70
2023-05-11T08:41:32.442Z,3.70
2023-05-11T08:42:32.429Z,4.10
2023-05-11T08:43:32.456Z,2.70
2023-05-11T08:44:32.414Z,2.50
2023-05-11T08:45:32.419Z,2.70
2023-05-11T08:46:32.379Z,2.70
2023-05-11T08:47:32.402Z,2.10
2023-05-11T08:48:32.384Z,2.00
2023-05-11T08:49:32.384Z,2.50
2023-05-11T08:50:32.336Z,2.20
2023-05-11T08:51:32.322Z,2.10
2023-05-11T08:52:32.307Z,2.10
2023-05-11T08:53:32.304Z,1.80
2023-05-11T08:54:32.297Z,1.70
2023-05-11T08:55:32.939Z,1.90
2023-05-11T08:56:32.995Z,1.90
2023-05-11T08:57:32.276Z,1.90
2023-05-11T08:58:32.244Z,1.60
2023-05-11T08:59:32.236Z,1.50
2023-05-11T09:00:32.872Z,1.60
2023-05-11T09:01:32.289Z,1.50
2023-05-11T09:02:32.336Z,1.60
2023-05-11T09:03:32.220Z,1.50
2023-05-11T09:04:32.191Z,1.70
2023-05-11T09:05:32.224Z,1.80
2023-05-11T09:06:32.188Z,1.40
2023-05-11T09:07:32.160Z,1.50
2023-05-11T09:08:32.174Z,1.70
2023-05-11T09:09:32.138Z,2.20
2023-05-11T09:10:32.112Z,1.70
2023-05-11T09:11:32.113Z,1.70
2023-05-11T09:12:32.115Z,1.70
2023-05-11T09:13:32.145Z,1.60
2023-05-11T09:14:32.063Z,1.80
2023-05-11T09:15:36.879Z,2.50
2023-05-11T09:16:37.094Z,1.70
2023-05-11T09:17:32.062Z,1.70
2023-05-11T09:18:32.092Z,1.80
2023-05-11T09:19:33.004Z,2.20
2023-05-11T09:20:33.449Z,2.30
2023-05-11T09:21:32.014Z,2.00
2023-05-11T09:22:33.276Z,1.80
2023-05-11T09:23:32.002Z,2.00
2023-05-11T09:24:31.998Z,1.90
2023-05-11T09:25:31.967Z,2.20
2023-05-11T09:26:31.952Z,2.10
2023-05-11T09:27:31.933Z,1.80
2023-05-11T09:28:36.138Z,1.70
2023-05-11T09:29:31.940Z,2.10
2023-05-11T09:30:31.905Z,2.10
2023-05-11T09:31:31.950Z,2.30
2023-05-11T09:32:31.954Z,2.00
2023-05-11T09:33:31.875Z,2.20
2023-05-11T09:34:32.510Z,2.10
2023-05-11T09:35:32.526Z,2.20
2023-05-11T09:36:31.838Z,2.20
2023-05-11T09:37:31.824Z,1.90
2023-05-11T09:38:31.833Z,2.00
2023-05-11T09:39:38.086Z,2.00
2023-05-11T09:40:34.112Z,2.30
2023-05-11T09:41:35.171Z,1.80
2023-05-11T09:42:31.814Z,1.40
2023-05-11T09:43:31.776Z,1.70
2023-05-11T09:44:31.762Z,1.60
2023-05-11T09:45:31.762Z,1.50
2023-05-11T09:46:31.779Z,1.30
2023-05-11T09:47:31.719Z,1.40
2023-05-11T09:48:31.885Z,1.40
2023-05-11T09:49:31.697Z,1.50
2023-05-11T09:50:31.721Z,1.40
2023-05-11T09:51:31.676Z,1.50
2023-05-11T09:52:31.657Z,1.10
2023-05-11T09:53:31.655Z,1.70
2023-05-11T09:54:31.673Z,1.40
2023-05-11T09:55:31.628Z,1.60
2023-05-11T09:56:31.640Z,1.70
2023-05-11T09:57:31.670Z,1.40
2023-05-11T09:58:31.621Z,1.50
2023-05-11T09:59:31.591Z,1.30
2023-05-11T10:00:32.439Z,1.40
2023-05-11T10:01:31.608Z,1.60
2023-05-11T10:02:31.624Z,1.70
2023-05-11T10:03:31.632Z,1.60
2023-05-11T10:04:31.754Z,1.70
2023-05-11T10:05:31.531Z,1.50
2023-05-11T10:06:31.544Z,1.50
2023-05-11T10:07:31.511Z,1.60
2023-05-11T10:08:31.497Z,1.30
2023-05-11T10:09:31.503Z,1.30
2023-05-11T10:10:31.485Z,1.40
2023-05-11T10:11:31.470Z,1.60
2023-05-11T10:12:31.465Z,1.40
2023-05-11T10:13:33.363Z,1.40
2023-05-11T10:14:31.420Z,1.50
2023-05-11T10:15:31.430Z,1.60
2023-05-11T10:16:31.518Z,1.70
2023-05-11T10:17:31.466Z,1.70
2023-05-11T10:18:31.410Z,1.70
2023-05-11T10:19:31.363Z,1.60
2023-05-11T10:20:31.363Z,1.80
2023-05-11T10:21:31.347Z,1.80
2023-05-11T10:22:31.389Z,1.80
2023-05-11T10:23:31.326Z,1.90
2023-05-11T10:24:31.309Z,1.90
2023-05-11T10:25:31.309Z,1.70
2023-05-11T10:26:31.304Z,1.70
2023-05-11T10:27:31.304Z,1.80
2023-05-11T10:28:31.287Z,1.90
2023-05-11T10:29:31.273Z,1.70
2023-05-11T10:30:31.250Z,1.50
2023-05-11T10:31:31.253Z,1.90
2023-05-11T10:32:31.283Z,1.60
2023-05-11T10:33:31.222Z,1.60
2023-05-11T10:34:31.860Z,1.30
2023-05-11T10:35:31.210Z,1.30
2023-05-11T10:36:31.174Z,1.20
2023-05-11T10:37:31.224Z,1.30
2023-05-11T10:38:31.154Z,1.30
2023-05-11T10:39:31.190Z,0.90
2023-05-11T10:40:31.142Z,1.20
2023-05-11T10:41:31.146Z,1.10
2023-05-11T10:42:31.116Z,0.90
2023-05-11T10:43:31.126Z,1.00
2023-05-11T10:44:31.088Z,1.00
2023-05-11T10:45:31.126Z,1.10
2023-05-11T10:46:31.140Z,1.00
2023-05-11T10:47:31.090Z,0.90
2023-05-11T10:48:31.072Z,0.90
2023-05-11T10:49:31.954Z,0.90
2023-05-11T10:50:31.479Z,1.10
2023-05-11T10:51:31.064Z,1.10
2023-05-11T10:52:31.835Z,0.90
2023-05-11T10:53:30.996Z,1.20
2023-05-11T10:54:33.548Z,0.90
2023-05-11T10:55:30.984Z,1.20
2023-05-11T10:56:30.997Z,1.20
2023-05-11T10:57:32.900Z,1.10
2023-05-11T10:58:30.929Z,1.30
2023-05-11T10:59:31.520Z,1.10
2023-05-11T11:00:31.561Z,1.00
2023-05-11T11:01:31.591Z,1.30
2023-05-11T11:02:30.959Z,1.40
2023-05-11T11:03:31.546Z,1.40
2023-05-11T11:04:30.873Z,1.20
2023-05-11T11:05:30.882Z,1.00
2023-05-11T11:06:30.915Z,1.20
2023-05-11T11:07:30.896Z,1.00
2023-05-11T11:08:30.833Z,1.20
2023-05-11T11:09:30.823Z,1.10
2023-05-11T11:10:30.812Z,1.10
2023-05-11T11:11:30.798Z,1.10
2023-05-11T11:12:30.808Z,1.10
2023-05-11T11:13:30.775Z,1.20
2023-05-11T11:14:30.760Z,1.10
2023-05-11T11:15:30.759Z,1.10
2023-05-11T11:16:30.828Z,1.30
2023-05-11T11:17:30.809Z,1.20
2023-05-11T11:18:31.540Z,1.20
2023-05-11T11:19:30.790Z,1.10
2023-05-11T11:20:30.781Z,0.90
2023-05-11T11:21:30.695Z,1.10
2023-05-11T11:22:30.779Z,1.20
2023-05-11T11:23:30.793Z,1.20
2023-05-11T11:24:30.692Z,1.20
2023-05-11T11:25:30.643Z,1.40
2023-05-11T11:26:30.635Z,1.30
2023-05-11T11:27:30.787Z,1.60
2023-05-11T11:28:30.640Z,1.60
2023-05-11T11:29:30.631Z,1.70
2023-05-11T11:30:30.898Z,1.70
2023-05-11T11:31:30.644Z,1.40
2023-05-11T11:32:30.607Z,1.60
2023-05-11T11:33:30.580Z,1.30
2023-05-11T11:34:30.585Z,1.30
2023-05-11T11:35:30.580Z,1.50
2023-05-11T11:36:30.547Z,1.40
2023-05-11T11:37:30.523Z,1.50
2023-05-11T11:38:31.450Z,1.60
2023-05-11T11:39:30.498Z,1.30
2023-05-11T11:40:36.548Z,1.60
2023-05-11T11:41:30.507Z,1.40
2023-05-11T11:42:31.164Z,1.90
2023-05-11T11:43:31.037Z,1.70
2023-05-11T11:44:30.481Z,1.80
2023-05-11T11:45:30.424Z,1.80
2023-05-11T11:46:30.473Z,1.40
2023-05-11T11:47:30.461Z,1.50
2023-05-11T11:48:30.459Z,1.60
2023-05-11T11:49:30.518Z,1.40
2023-05-11T11:50:30.397Z,1.30
2023-05-11T11:51:30.363Z,1.40
2023-05-11T11:52:30.382Z,1.20
2023-05-11T11:53:30.334Z,1.30
2023-05-11T11:54:30.362Z,1.20
2023-05-11T11:55:30.347Z,1.40
2023-05-11T11:56:30.348Z,1.20
2023-05-11T11:57:30.332Z,1.50
2023-05-11T11:58:30.307Z,1.30
2023-05-11T11:59:30.311Z,1.20
2023-05-11T12:00:30.273Z,1.30
2023-05-11T12:01:30.281Z,1.20
2023-05-11T12:02:30.395Z,1.40
2023-05-11T12:03:30.358Z,1.40
2023-05-11T12:04:31.099Z,1.30
2023-05-11T12:05:30.210Z,1.30
2023-05-11T12:06:30.209Z,1.20
2023-05-11T12:07:30.233Z,1.10
2023-05-11T12:08:30.185Z,1.20
2023-05-11T12:09:30.253Z,0.90
2023-05-11T12:10:30.156Z,1.20
2023-05-11T12:11:30.149Z,1.10
2023-05-11T12:12:30.194Z,1.10
2023-05-11T12:13:30.182Z,1.10
2023-05-11T12:14:30.136Z,1.30
2023-05-11T12:15:30.152Z,1.20
2023-05-11T12:16:30.291Z,1.30
2023-05-11T12:17:30.232Z,1.10
2023-05-11T12:18:32.996Z,1.10
2023-05-11T12:19:30.048Z,1.30
2023-05-11T12:20:30.055Z,1.20
2023-05-11T12:21:30.996Z,1.10
2023-05-11T12:22:30.047Z,1.50
2023-05-11T12:23:30.030Z,1.40
2023-05-11T12:24:30.043Z,1.40
2023-05-11T12:25:29.990Z,1.90
2023-05-11T12:26:29.990Z,2.00
2023-05-11T12:27:29.975Z,1.80
2023-05-11T12:28:29.979Z,1.80
2023-05-11T12:29:29.949Z,1.70
2023-05-11T12:30:29.939Z,1.60
2023-05-11T12:31:29.954Z,1.50
2023-05-11T12:32:30.018Z,1.70
2023-05-11T12:33:29.948Z,1.70
2023-05-11T12:34:29.924Z,1.60
2023-05-11T12:35:29.905Z,1.70
2023-05-11T12:36:29.892Z,1.70
2023-05-11T12:37:29.903Z,1.60
2023-05-11T12:38:29.848Z,1.60
2023-05-11T12:39:29.855Z,1.70
2023-05-11T12:40:29.843Z,1.50
2023-05-11T12:41:29.843Z,1.80
2023-05-11T12:42:29.826Z,1.60
2023-05-11T12:43:29.882Z,1.40
2023-05-11T12:44:29.816Z,1.90
2023-05-11T12:45:29.771Z,1.40
2023-05-11T12:46:29.810Z,1.40
2023-05-11T12:47:29.803Z,1.50
2023-05-11T12:48:29.752Z,1.70
2023-05-11T12:49:29.756Z,1.30
2023-05-11T12:50:29.735Z,1.40
2023-05-11T12:51:29.954Z,1.40
2023-05-11T12:52:29.697Z,1.40
2023-05-11T12:53:29.689Z,1.20
2023-05-11T12:54:29.674Z,1.20
2023-05-11T12:55:29.694Z,1.20
2023-05-11T12:56:29.658Z,1.40
2023-05-11T12:57:29.652Z,1.20
2023-05-11T12:58:29.641Z,1.20
2023-05-11T12:59:29.624Z,1.10
2023-05-11T13:00:29.641Z,0.90
2023-05-11T13:01:29.615Z,0.90
2023-05-11T13:02:29.703Z,1.20
2023-05-11T13:03:29.737Z,1.40
2023-05-11T13:04:29.572Z,1.30
2023-05-11T13:05:29.559Z,1.10
2023-05-11T13:06:29.576Z,1.00
2023-05-11T13:07:29.558Z,1.10
2023-05-11T13:08:29.552Z,0.90
2023-05-11T13:09:29.545Z,0.90
2023-05-11T13:10:29.564Z,0.90
2023-05-11T13:11:29.522Z,1.10
2023-05-11T13:12:31.748Z,1.10
2023-05-11T13:13:29.503Z,1.10
2023-05-11T13:14:29.458Z,1.20
2023-05-11T13:15:29.459Z,1.00
2023-05-11T13:16:29.589Z,1.00
2023-05-11T13:17:29.470Z,0.90
2023-05-11T13:18:29.465Z,1.10